createdAt,value
2023-01-23T00:04:31.291Z,1.52
2023-01-23T00:09:32.962Z,1.55
2023-01-23T00:14:34.481Z,1.47
2023-01-23T00:19:35.977Z,1.53
2023-01-23T00:24:37.465Z,1.50
2023-01-23T00:29:38.941Z,1.48
2023-01-23T00:34:40.413Z,1.49
2023-01-23T00:39:42.936Z,1.40
2023-01-23T00:44:44.406Z,1.38
2023-01-23T00:49:45.924Z,1.34
2023-01-23T00:54:47.396Z,1.36
2023-01-23T00:59:48.937Z,1.30
2023-01-23T01:04:50.498Z,1.34
2023-01-23T01:09:52.144Z,1.47
2023-01-23T01:14:53.664Z,1.42
2023-01-23T01:19:55.392Z,1.39
2023-01-23T01:24:57.495Z,1.45
2023-01-23T01:29:59.000Z,1.50
2023-01-23T01:35:00.472Z,1.48
2023-01-23T01:40:03.306Z,1.49
2023-01-23T01:45:05.685Z,1.51
2023-01-23T01:50:07.410Z,1.42
2023-01-23T01:55:08.959Z,1.45
2023-01-23T02:00:17.600Z,1.49
2023-01-23T02:05:24.340Z,1.43
2023-01-23T02:10:25.893Z,1.48
2023-01-23T02:15:27.461Z,1.54
2023-01-23T02:20:29.595Z,1.46
2023-01-23T02:25:40.179Z,1.42
2023-01-23T02:30:43.737Z,1.45
2023-01-23T02:35:45.635Z,1.40
2023-01-23T02:40:47.115Z,1.48
2023-01-23T02:45:48.942Z,1.47
2023-01-23T02:50:50.474Z,1.44
2023-01-23T02:55:51.973Z,1.42
2023-01-23T03:00:53.557Z,1.38
2023-01-23T03:05:55.674Z,1.36
2023-01-23T03:10:57.137Z,1.42
2023-01-23T03:15:58.736Z,1.44
2023-01-23T03:21:05.141Z,1.39
2023-01-23T03:26:06.722Z,1.45
2023-01-23T03:31:08.271Z,1.42
2023-01-23T03:36:13.071Z,1.40
2023-01-23T03:41:26.949Z,1.50
2023-01-23T03:46:28.454Z,1.51
2023-01-23T03:51:29.981Z,1.48
2023-01-23T03:56:31.742Z,1.46
2023-01-23T04:01:33.252Z,1.56
2023-01-23T04:06:35.037Z,1.55
2023-01-23T04:11:36.532Z,1.51
2023-01-23T04:16:38.050Z,1.50
2023-01-23T04:21:40.104Z,1.53
2023-01-23T04:26:41.657Z,1.63
2023-01-23T04:31:43.294Z,1.61
2023-01-23T04:36:45.090Z,1.57
2023-01-23T04:41:46.572Z,1.63
2023-01-23T04:46:55.363Z,1.63
2023-01-23T04:51:56.904Z,1.54
2023-01-23T04:56:58.436Z,1.63
2023-01-23T05:02:02.243Z,1.65
2023-01-23T05:07:04.381Z,1.58
2023-01-23T05:12:06.638Z,1.52
2023-01-23T05:17:08.469Z,1.55
2023-01-23T05:22:10.674Z,1.54
2023-01-23T05:27:12.911Z,1.46
2023-01-23T05:32:14.512Z,1.51
2023-01-23T05:37:16.310Z,1.52
2023-01-23T05:42:17.794Z,1.50
2023-01-23T05:47:19.267Z,1.46
2023-01-23T05:52:21.914Z,1.51
2023-01-23T05:57:23.635Z,1.57
2023-01-23T06:02:25.233Z,1.49
2023-01-23T06:07:26.845Z,1.51
2023-01-23T06:12:28.358Z,1.59
2023-01-23T06:17:29.866Z,1.57
2023-01-23T06:22:31.637Z,1.50
2023-01-23T06:27:33.238Z,1.55
2023-01-23T06:32:34.993Z,1.57
2023-01-23T06:37:36.619Z,1.58
2023-01-23T06:42:38.124Z,1.48
2023-01-23T06:47:39.695Z,1.49
2023-01-23T06:52:41.172Z,1.52
2023-01-23T06:57:42.698Z,1.53
2023-01-23T07:02:45.699Z,1.59
2023-01-23T07:07:47.369Z,1.66
2023-01-23T07:12:50.605Z,1.60
2023-01-23T07:17:52.113Z,1.57
2023-01-23T07:22:57.835Z,1.63
2023-01-23T07:27:59.366Z,1.66
2023-01-23T07:33:01.228Z,1.64
2023-01-23T07:38:02.745Z,1.74
2023-01-23T07:43:05.324Z,1.67
2023-01-23T07:48:07.087Z,1.65
2023-01-23T07:53:09.209Z,1.71
2023-01-23T07:58:10.808Z,1.63
2023-01-23T08:03:12.513Z,1.61
2023-01-23T08:08:14.171Z,1.71
2023-01-23T08:13:15.827Z,1.75
2023-01-23T08:18:17.755Z,1.73
2023-01-23T08:23:19.243Z,1.75
2023-01-23T08:28:21.361Z,1.74
2023-01-23T08:33:22.974Z,1.70
2023-01-23T08:38:25.262Z,1.71
2023-01-23T08:43:27.077Z,1.68
2023-01-23T08:48:28.963Z,1.71
2023-01-23T08:53:31.886Z,1.76
2023-01-23T08:58:34.368Z,1.69
2023-01-23T09:03:35.952Z,1.75
2023-01-23T09:08:37.772Z,1.82
2023-01-23T09:13:40.229Z,1.89
2023-01-23T09:18:41.788Z,2.02
2023-01-23T09:23:43.805Z,2.08
2023-01-23T09:28:46.132Z,1.97
2023-01-23T09:33:48.568Z,1.98
2023-01-23T09:38:50.541Z,1.97
2023-01-23T09:44:10.156Z,2.05
2023-01-23T09:49:28.589Z,2.12
2023-01-23T09:54:43.187Z,2.13
2023-01-23T10:00:03.722Z,2.12
2023-01-23T10:05:13.786Z,2.20
2023-01-23T10:10:45.673Z,2.24
2023-01-23T10:16:10.977Z,2.19
2023-01-23T10:21:12.578Z,2.28
2023-01-23T10:26:45.127Z,2.23
2023-01-23T10:31:58.775Z,2.22
2023-01-23T10:37:27.932Z,2.40
2023-01-23T10:42:29.617Z,2.47
2023-01-23T10:47:37.128Z,2.51
2023-01-23T10:52:43.648Z,2.61
2023-01-23T10:57:52.938Z,2.71
2023-01-23T11:02:54.641Z,2.70
2023-01-23T11:07:56.311Z,2.63
2023-01-23T11:13:00.589Z,2.66
2023-01-23T11:18:02.333Z,2.72
2023-01-23T11:23:14.531Z,2.68
2023-01-23T11:28:47.902Z,2.66
2023-01-23T11:34:03.180Z,2.75
2023-01-23T11:39:26.105Z,2.73
2023-01-23T11:44:30.080Z,2.74
2023-01-23T11:50:01.380Z,2.64
2023-01-23T11:55:15.210Z,2.63
2023-01-23T12:00:43.940Z,2.57
2023-01-23T12:06:13.821Z,2.51
2023-01-23T12:11:24.611Z,2.68
2023-01-23T12:16:48.145Z,2.70
2023-01-23T12:22:06.084Z,2.70
2023-01-23T12:27:17.086Z,2.57
2023-01-23T12:32:24.694Z,2.59
2023-01-23T12:37:55.242Z,2.53
2023-01-23T12:43:08.668Z,2.59
2023-01-23T12:48:16.673Z,2.71
2023-01-23T12:53:22.146Z,2.62
2023-01-23T12:58:28.305Z,2.60
2023-01-23T13:03:46.103Z,2.56
2023-01-23T13:09:17.827Z,2.52
2023-01-23T13:14:43.416Z,2.54
2023-01-23T13:20:12.166Z,2.63
2023-01-23T13:25:18.862Z,2.58
2023-01-23T13:30:26.336Z,2.46
2023-01-23T13:35:40.198Z,2.46
2023-01-23T13:41:01.701Z,2.45
2023-01-23T13:46:03.527Z,2.33
2023-01-23T14:24:01.384Z,2.16
2023-01-23T14:29:18.696Z,2.07
2023-01-23T14:34:25.239Z,2.09
2023-01-23T14:39:30.256Z,2.03
2023-01-23T14:44:47.138Z,1.99
2023-01-23T14:49:49.424Z,2.02
2023-01-23T14:54:54.190Z,1.93
2023-01-23T14:59:58.017Z,1.88
2023-01-23T15:05:19.998Z,1.81
2023-01-23T15:10:27.680Z,1.83
2023-01-23T15:15:31.295Z,1.81
2023-01-23T15:20:40.753Z,1.78
2023-01-23T15:25:42.458Z,1.79
2023-01-23T15:30:48.469Z,1.74
2023-01-23T15:35:50.662Z,1.80
2023-01-23T15:40:52.208Z,1.78
2023-01-23T15:45:54.048Z,1.73
2023-01-23T15:50:55.755Z,1.80
2023-01-23T15:56:01.492Z,1.78
2023-01-23T16:01:03.216Z,1.80
2023-01-23T16:06:06.359Z,1.82
2023-01-23T16:11:07.963Z,1.75
2023-01-23T16:16:18.178Z,1.76
2023-01-23T16:21:26.920Z,1.75
2023-01-23T16:26:29.843Z,1.75
2023-01-23T16:31:31.406Z,1.74
2023-01-23T16:36:33.110Z,1.77
2023-01-23T16:41:34.647Z,1.74
2023-01-23T16:46:36.205Z,1.73
2023-01-23T16:51:39.024Z,1.82
2023-01-23T16:56:42.034Z,1.80
2023-01-23T17:01:45.776Z,1.78
2023-01-23T17:06:48.201Z,1.88
2023-01-23T17:11:57.141Z,1.89
2023-01-23T17:17:04.651Z,1.82
2023-01-23T17:22:12.154Z,1.85
2023-01-23T17:27:13.670Z,1.93
2023-01-23T17:32:37.062Z,1.84
2023-01-23T17:37:39.482Z,1.76
2023-01-23T17:42:41.773Z,1.79
2023-01-23T17:47:46.829Z,1.80
2023-01-23T17:52:49.005Z,1.75
2023-01-23T17:57:50.887Z,1.77
2023-01-23T18:03:00.641Z,1.79
2023-01-23T18:08:02.226Z,1.78
2023-01-23T18:13:21.983Z,1.81
2023-01-23T18:18:35.513Z,1.83
2023-01-23T18:23:37.829Z,1.82
2023-01-23T18:28:52.988Z,1.92
2023-01-23T18:34:23.994Z,1.92
2023-01-23T18:39:44.532Z,1.88
2023-01-23T18:45:10.359Z,1.86
2023-01-23T18:50:18.017Z,1.87
2023-01-23T18:55:25.524Z,2.01
2023-01-23T19:00:33.068Z,2.02
2023-01-23T19:05:34.915Z,2.01
2023-01-23T19:10:48.873Z,1.96
2023-01-23T19:16:12.946Z,2.00
2023-01-23T19:21:14.646Z,2.10
2023-01-23T19:26:17.787Z,2.09
2023-01-23T19:31:22.727Z,2.00
2023-01-23T19:36:25.070Z,1.97
2023-01-23T19:41:48.716Z,2.05
2023-01-23T19:46:50.807Z,2.05
2023-01-23T19:51:52.554Z,1.99
2023-01-23T19:56:54.333Z,1.94
2023-01-23T20:01:57.007Z,2.02
2023-01-23T20:06:58.550Z,2.06
2023-01-23T20:12:00.015Z,2.00
2023-01-23T20:17:01.561Z,1.97
2023-01-23T20:22:03.140Z,1.99
2023-01-23T20:27:05.037Z,2.05
2023-01-23T20:32:07.423Z,2.04
2023-01-23T20:37:09.046Z,2.02
2023-01-23T20:42:11.382Z,1.97
2023-01-23T20:47:13.276Z,2.07
2023-01-23T20:52:33.311Z,2.08
2023-01-23T20:57:53.224Z,2.03
2023-01-23T21:02:55.045Z,1.98
2023-01-23T21:07:56.669Z,2.03
2023-01-23T21:12:58.151Z,2.04
2023-01-23T21:17:59.773Z,2.03
2023-01-23T21:23:01.313Z,1.93
2023-01-23T21:28:02.844Z,1.83
2023-01-23T21:33:05.406Z,1.94
2023-01-23T21:38:06.951Z,1.97
2023-01-23T21:43:08.521Z,1.88
2023-01-23T21:48:10.012Z,1.93
2023-01-23T21:53:11.542Z,1.96
2023-01-23T21:58:13.018Z,1.90
2023-01-23T22:03:14.527Z,1.86
2023-01-23T22:08:16.087Z,1.90
2023-01-23T22:13:17.577Z,1.92
2023-01-23T22:18:19.067Z,1.89
2023-01-23T22:23:20.591Z,1.87
2023-01-23T22:28:23.234Z,1.89
2023-01-23T22:33:32.775Z,1.91
2023-01-23T22:38:37.527Z,1.90
2023-01-23T22:43:39.074Z,1.85
2023-01-23T22:48:41.220Z,1.86
2023-01-23T22:53:42.827Z,1.91
2023-01-23T22:58:45.897Z,1.86
2023-01-23T23:03:47.398Z,1.81
2023-01-23T23:08:48.922Z,1.81
2023-01-23T23:13:50.979Z,1.90
2023-01-23T23:18:55.873Z,1.87
2023-01-23T23:23:58.645Z,1.82
2023-01-23T23:29:00.913Z,1.78
2023-01-23T23:34:02.490Z,1.85
2023-01-23T23:39:04.130Z,1.86
2023-01-23T23:44:05.812Z,1.84
2023-01-23T23:49:07.349Z,1.82
2023-01-23T23:54:08.850Z,1.81
2023-01-23T23:59:15.748Z,1.85
